sensor_id;sensor_type;location;lat;lon;timestamp;temperature;humidity
30851;DHT22;17567;48.382;9.102;2023-06-22T00:09:28;20.00;99.90
30851;DHT22;17567;48.382;9.102;2023-06-22T00:14:28;19.80;99.90
30851;DHT22;17567;48.382;9.102;2023-06-22T00:19:29;19.70;99.90
30851;DHT22;17567;48.382;9.102;2023-06-22T00:24:29;19.60;99.90
30851;DHT22;17567;48.382;9.102;2023-06-22T00:29:30;19.50;99.90
30851;DHT22;17567;48.382;9.102;2023-06-22T00:34:31;19.40;99.90
30851;DHT22;17567;48.382;9.102;2023-06-22T00:39:31;19.20;99.90
30851;DHT22;17567;48.382;9.102;2023-06-22T00:44:33;19.10;99.90
30851;DHT22;17567;48.382;9.102;2023-06-22T00:49:34;19.00;99.90
30851;DHT22;17567;48.382;9.102;2023-06-22T00:54:36;18.90;99.90
30851;DHT22;17567;48.382;9.102;2023-06-22T00:59:36;18.80;99.90
30851;DHT22;17567;48.382;9.102;2023-06-22T01:04:39;18.70;99.90
30851;DHT22;17567;48.382;9.102;2023-06-22T01:10:14;18.60;99.90
30851;DHT22;17567;48.382;9.102;2023-06-22T01:15:36;18.60;99.90
30851;DHT22;17567;48.382;9.102;2023-06-22T01:20:38;18.50;99.90
30851;DHT22;17567;48.382;9.102;2023-06-22T01:26:06;18.40;99.90
30851;DHT22;17567;48.382;9.102;2023-06-22T01:31:10;18.30;99.90
30851;DHT22;17567;48.382;9.102;2023-06-22T01:36:13;18.20;99.90
30851;DHT22;17567;48.382;9.102;2023-06-22T01:41:15;18.10;99.90
30851;DHT22;17567;48.382;9.102;2023-06-22T01:46:17;18.10;99.90
30851;DHT22;17567;48.382;9.102;2023-06-22T01:51:19;18.00;99.90
30851;DHT22;17567;48.382;9.102;2023-06-22T01:56:20;18.00;99.90
30851;DHT22;17567;48.382;9.102;2023-06-22T02:01:26;17.90;99.90
30851;DHT22;17567;48.382;9.102;2023-06-22T02:06:33;17.80;99.90
30851;DHT22;17567;48.382;9.102;2023-06-22T02:11:37;17.80;99.90
30851;DHT22;17567;48.382;9.102;2023-06-22T02:16:37;17.70;99.90
30851;DHT22;17567;48.382;9.102;2023-06-22T02:21:38;17.60;99.90
30851;DHT22;17567;48.382;9.102;2023-06-22T02:26:39;17.60;99.90
30851;DHT22;17567;48.382;9.102;2023-06-22T02:31:42;17.50;99.90
30851;DHT22;17567;48.382;9.102;2023-06-22T02:36:44;17.40;99.90
30851;DHT22;17567;48.382;9.102;2023-06-22T02:41:53;17.50;99.90
30851;DHT22;17567;48.382;9.102;2023-06-22T02:46:54;17.40;99.90
30851;DHT22;17567;48.382;9.102;2023-06-22T02:51:54;17.20;99.90
30851;DHT22;17567;48.382;9.102;2023-06-22T02:56:55;17.20;99.90
30851;DHT22;17567;48.382;9.102;2023-06-22T03:01:56;17.20;99.90
30851;DHT22;17567;48.382;9.102;2023-06-22T03:06:56;17.10;99.90
30851;DHT22;17567;48.382;9.102;2023-06-22T03:12:01;17.10;99.90
30851;DHT22;17567;48.382;9.102;2023-06-22T03:17:03;17.00;99.90
30851;DHT22;17567;48.382;9.102;2023-06-22T03:22:04;16.90;99.90
30851;DHT22;17567;48.382;9.102;2023-06-22T03:27:05;16.90;99.90
30851;DHT22;17567;48.382;9.102;2023-06-22T03:32:06;16.90;99.90
30851;DHT22;17567;48.382;9.102;2023-06-22T03:37:07;17.00;99.90
30851;DHT22;17567;48.382;9.102;2023-06-22T03:42:08;17.00;99.90
30851;DHT22;17567;48.382;9.102;2023-06-22T03:47:09;17.00;99.90
30851;DHT22;17567;48.382;9.102;2023-06-22T03:52:10;17.00;99.90
30851;DHT22;17567;48.382;9.102;2023-06-22T03:57:11;17.00;99.90
30851;DHT22;17567;48.382;9.102;2023-06-22T04:02:12;17.10;99.90
30851;DHT22;17567;48.382;9.102;2023-06-22T04:07:12;17.10;99.90
30851;DHT22;17567;48.382;9.102;2023-06-22T04:12:13;17.10;99.90
30851;DHT22;17567;48.382;9.102;2023-06-22T04:17:14;17.10;99.90
30851;DHT22;17567;48.382;9.102;2023-06-22T04:22:15;17.10;99.90
30851;DHT22;17567;48.382;9.102;2023-06-22T04:27:16;17.20;99.90
30851;DHT22;17567;48.382;9.102;2023-06-22T04:32:16;17.30;99.90
30851;DHT22;17567;48.382;9.102;2023-06-22T04:37:17;17.60;99.90
30851;DHT22;17567;48.382;9.102;2023-06-22T04:42:17;17.50;99.90
30851;DHT22;17567;48.382;9.102;2023-06-22T04:47:18;17.60;99.90
30851;DHT22;17567;48.382;9.102;2023-06-22T04:52:19;17.80;99.90
30851;DHT22;17567;48.382;9.102;2023-06-22T04:57:20;17.90;99.90
30851;DHT22;17567;48.382;9.102;2023-06-22T05:02:21;18.10;99.90
30851;DHT22;17567;48.382;9.102;2023-06-22T05:07:23;18.20;99.90
30851;DHT22;17567;48.382;9.102;2023-06-22T05:12:27;18.40;99.90
30851;DHT22;17567;48.382;9.102;2023-06-22T05:17:27;18.50;99.90
30851;DHT22;17567;48.382;9.102;2023-06-22T05:22:28;18.60;99.90
30851;DHT22;17567;48.382;9.102;2023-06-22T05:27:29;18.80;99.90
30851;DHT22;17567;48.382;9.102;2023-06-22T05:32:29;19.00;99.90
30851;DHT22;17567;48.382;9.102;2023-06-22T05:37:30;19.30;99.90
30851;DHT22;17567;48.382;9.102;2023-06-22T05:42:31;19.30;99.90
30851;DHT22;17567;48.382;9.102;2023-06-22T05:47:31;19.40;99.90
30851;DHT22;17567;48.382;9.102;2023-06-22T05:52:32;19.70;99.90
30851;DHT22;17567;48.382;9.102;2023-06-22T05:57:33;19.90;99.90
30851;DHT22;17567;48.382;9.102;2023-06-22T06:02:33;19.90;99.90
30851;DHT22;17567;48.382;9.102;2023-06-22T06:07:34;20.00;99.90
30851;DHT22;17567;48.382;9.102;2023-06-22T06:12:37;20.20;99.90
30851;DHT22;17567;48.382;9.102;2023-06-22T06:22:53;20.50;99.90
30851;DHT22;17567;48.382;9.102;2023-06-22T06:27:54;20.70;99.90
30851;DHT22;17567;48.382;9.102;2023-06-22T06:32:54;20.80;99.90
30851;DHT22;17567;48.382;9.102;2023-06-22T06:37:56;21.00;99.90
30851;DHT22;17567;48.382;9.102;2023-06-22T06:42:57;21.10;99.90
30851;DHT22;17567;48.382;9.102;2023-06-22T06:47:57;21.40;99.90
30851;DHT22;17567;48.382;9.102;2023-06-22T19:22:56;21.80;99.90
30851;DHT22;17567;48.382;9.102;2023-06-22T19:27:57;21.50;99.90
30851;DHT22;17567;48.382;9.102;2023-06-22T19:32:58;21.60;99.90
30851;DHT22;17567;48.382;9.102;2023-06-22T19:38:00;21.70;99.90
30851;DHT22;17567;48.382;9.102;2023-06-22T19:43:00;21.60;99.90
30851;DHT22;17567;48.382;9.102;2023-06-22T19:48:01;21.60;99.90
30851;DHT22;17567;48.382;9.102;2023-06-22T19:53:02;21.50;99.90
30851;DHT22;17567;48.382;9.102;2023-06-22T19:58:02;21.50;99.90
30851;DHT22;17567;48.382;9.102;2023-06-22T20:03:08;21.40;99.90
30851;DHT22;17567;48.382;9.102;2023-06-22T20:08:13;21.20;99.90
30851;DHT22;17567;48.382;9.102;2023-06-22T20:13:20;21.20;99.90
30851;DHT22;17567;48.382;9.102;2023-06-22T20:18:22;21.20;99.90
30851;DHT22;17567;48.382;9.102;2023-06-22T20:23:23;20.90;99.90
30851;DHT22;17567;48.382;9.102;2023-06-22T20:28:25;20.80;99.90
30851;DHT22;17567;48.382;9.102;2023-06-22T20:33:26;20.80;99.90
30851;DHT22;17567;48.382;9.102;2023-06-22T20:38:27;20.60;99.90
30851;DHT22;17567;48.382;9.102;2023-06-22T20:43:28;20.30;99.90
30851;DHT22;17567;48.382;9.102;2023-06-22T20:48:29;20.30;99.90
30851;DHT22;17567;48.382;9.102;2023-06-22T20:53:31;20.30;99.90
30851;DHT22;17567;48.382;9.102;2023-06-22T20:58:32;20.10;99.90
30851;DHT22;17567;48.382;9.102;2023-06-22T21:03:33;20.00;99.90
30851;DHT22;17567;48.382;9.102;2023-06-22T21:08:33;20.00;99.90
30851;DHT22;17567;48.382;9.102;2023-06-22T21:13:34;19.80;99.90
30851;DHT22;17567;48.382;9.102;2023-06-22T21:18:37;19.70;99.90
30851;DHT22;17567;48.382;9.102;2023-06-22T21:23:37;19.70;99.90
30851;DHT22;17567;48.382;9.102;2023-06-22T21:28:38;19.60;99.90
30851;DHT22;17567;48.382;9.102;2023-06-22T21:33:39;19.60;99.90
30851;DHT22;17567;48.382;9.102;2023-06-22T21:38:39;19.40;99.90
30851;DHT22;17567;48.382;9.102;2023-06-22T21:43:40;19.30;99.90
30851;DHT22;17567;48.382;9.102;2023-06-22T21:48:41;19.30;99.90
30851;DHT22;17567;48.382;9.102;2023-06-22T21:53:42;19.20;99.90
30851;DHT22;17567;48.382;9.102;2023-06-22T21:58:42;19.30;99.90
30851;DHT22;17567;48.382;9.102;2023-06-22T22:03:43;19.20;99.90
30851;DHT22;17567;48.382;9.102;2023-06-22T22:08:43;19.20;99.90
30851;DHT22;17567;48.382;9.102;2023-06-22T22:13:44;19.30;99.90
30851;DHT22;17567;48.382;9.102;2023-06-22T22:18:45;19.00;99.90
30851;DHT22;17567;48.382;9.102;2023-06-22T22:23:47;19.00;99.90
30851;DHT22;17567;48.382;9.102;2023-06-22T22:28:48;19.00;99.90
30851;DHT22;17567;48.382;9.102;2023-06-22T22:33:48;19.00;99.90
30851;DHT22;17567;48.382;9.102;2023-06-22T22:38:49;18.90;99.90
30851;DHT22;17567;48.382;9.102;2023-06-22T22:43:49;19.00;99.90
30851;DHT22;17567;48.382;9.102;2023-06-22T22:48:51;19.00;99.90
30851;DHT22;17567;48.382;9.102;2023-06-22T22:53:52;19.00;99.90
30851;DHT22;17567;48.382;9.102;2023-06-22T22:58:53;19.00;99.90
30851;DHT22;17567;48.382;9.102;2023-06-22T23:03:54;18.90;99.90
30851;DHT22;17567;48.382;9.102;2023-06-22T23:08:58;18.80;99.90
30851;DHT22;17567;48.382;9.102;2023-06-22T23:13:59;18.70;99.90
30851;DHT22;17567;48.382;9.102;2023-06-22T23:19:00;18.60;99.90
30851;DHT22;17567;48.382;9.102;2023-06-22T23:24:00;18.60;99.90
30851;DHT22;17567;48.382;9.102;2023-06-22T23:29:03;18.70;99.90
30851;DHT22;17567;48.382;9.102;2023-06-22T23:34:04;18.70;99.90
30851;DHT22;17567;48.382;9.102;2023-06-22T23:39:04;18.60;99.90
30851;DHT22;17567;48.382;9.102;2023-06-22T23:44:05;18.70;99.90
30851;DHT22;17567;48.382;9.102;2023-06-22T23:49:06;18.70;99.90
30851;DHT22;17567;48.382;9.102;2023-06-22T23:54:08;18.60;99.90
30851;DHT22;17567;48.382;9.102;2023-06-22T23:59:08;18.60;99.90
